sensor_id;sensor_type;location;lat;lon;timestamp;pressure;altitude;pressure_sealevel;temperature;humidity
71504;BME280;59323;50.874;7.028;2023-03-16T00:02:15;101673.78;;;1.57;84.90
71504;BME280;59323;50.874;7.028;2023-03-16T00:04:40;101677.00;;;1.54;84.76
71504;BME280;59323;50.874;7.028;2023-03-16T00:07:08;101667.34;;;1.58;84.69
71504;BME280;59323;50.874;7.028;2023-03-16T00:09:34;101666.03;;;1.55;85.43
71504;BME280;59323;50.874;7.028;2023-03-16T00:12:01;101659.91;;;1.50;85.50
71504;BME280;59323;50.874;7.028;2023-03-16T00:14:30;101655.34;;;1.50;85.58
71504;BME280;59323;50.874;7.028;2023-03-16T00:16:56;101665.22;;;1.55;84.93
71504;BME280;59323;50.874;7.028;2023-03-16T00:19:21;101662.03;;;1.53;84.59
71504;BME280;59323;50.874;7.028;2023-03-16T00:21:50;101669.78;;;1.54;84.72
71504;BME280;59323;50.874;7.028;2023-03-16T00:24:16;101659.91;;;1.50;84.76
71504;BME280;59323;50.874;7.028;2023-03-16T00:26:44;101659.91;;;1.50;84.70
71504;BME280;59323;50.874;7.028;2023-03-16T00:29:09;101649.47;;;1.48;84.76
71504;BME280;59323;50.874;7.028;2023-03-16T00:31:36;101652.94;;;1.49;84.74
71504;BME280;59323;50.874;7.028;2023-03-16T00:34:01;101650.28;;;1.49;85.16
71504;BME280;59323;50.874;7.028;2023-03-16T00:36:27;101643.84;;;1.50;84.54
71504;BME280;59323;50.874;7.028;2023-03-16T00:38:52;101630.44;;;1.50;84.71
71504;BME280;59323;50.874;7.028;2023-03-16T00:41:18;101629.09;;;1.52;83.95
71504;BME280;59323;50.874;7.028;2023-03-16T00:43:44;101627.19;;;1.53;84.27
71504;BME280;59323;50.874;7.028;2023-03-16T00:46:15;101628.25;;;1.57;84.11
71504;BME280;59323;50.874;7.028;2023-03-16T00:48:42;101628.00;;;1.53;83.85
71504;BME280;59323;50.874;7.028;2023-03-16T00:51:14;101629.84;;;1.58;83.85
71504;BME280;59323;50.874;7.028;2023-03-16T00:53:42;101636.84;;;1.54;84.66
71504;BME280;59323;50.874;7.028;2023-03-16T00:56:09;101640.88;;;1.51;84.53
71504;BME280;59323;50.874;7.028;2023-03-16T00:58:36;101635.25;;;1.53;84.91
71504;BME280;59323;50.874;7.028;2023-03-16T01:01:02;101636.84;;;1.54;85.15
71504;BME280;59323;50.874;7.028;2023-03-16T01:03:28;101631.25;;;1.50;84.86
71504;BME280;59323;50.874;7.028;2023-03-16T01:05:54;101635.25;;;1.53;85.12
71504;BME280;59323;50.874;7.028;2023-03-16T01:08:24;101644.59;;;1.55;84.63
71504;BME280;59323;50.874;7.028;2023-03-16T01:10:49;101642.44;;;1.57;84.79
71504;BME280;59323;50.874;7.028;2023-03-16T01:13:15;101643.50;;;1.56;84.75
71504;BME280;59323;50.874;7.028;2023-03-16T01:15:40;101643.22;;;1.58;84.52
71504;BME280;59323;50.874;7.028;2023-03-16T01:18:05;101645.91;;;1.58;84.86
71504;BME280;59323;50.874;7.028;2023-03-16T01:20:31;101641.59;;;1.62;84.76
71504;BME280;59323;50.874;7.028;2023-03-16T01:22:57;101629.00;;;1.63;84.61
71504;BME280;59323;50.874;7.028;2023-03-16T01:25:23;101631.38;;;1.64;84.06
71504;BME280;59323;50.874;7.028;2023-03-16T01:27:48;101629.50;;;1.65;84.42
71504;BME280;59323;50.874;7.028;2023-03-16T01:30:13;101625.47;;;1.67;84.53
71504;BME280;59323;50.874;7.028;2023-03-16T01:32:39;101616.06;;;1.70;84.18
71504;BME280;59323;50.874;7.028;2023-03-16T01:35:06;101608.03;;;1.70;84.21
71504;BME280;59323;50.874;7.028;2023-03-16T01:37:32;101605.06;;;1.71;84.67
71504;BME280;59323;50.874;7.028;2023-03-16T01:39:57;101594.00;;;1.78;83.71
71504;BME280;59323;50.874;7.028;2023-03-16T01:42:22;101593.44;;;1.81;82.84
71504;BME280;59323;50.874;7.028;2023-03-16T01:44:59;101593.72;;;1.79;83.17
71504;BME280;59323;50.874;7.028;2023-03-16T01:47:30;101591.28;;;1.83;83.33
71504;BME280;59323;50.874;7.028;2023-03-16T01:50:03;101592.06;;;1.83;83.04
71504;BME280;59323;50.874;7.028;2023-03-16T01:52:31;101590.78;;;1.81;83.68
71504;BME280;59323;50.874;7.028;2023-03-16T01:55:02;101589.44;;;1.78;83.26
71504;BME280;59323;50.874;7.028;2023-03-16T01:57:33;101578.75;;;1.78;83.52
71504;BME280;59323;50.874;7.028;2023-03-16T02:02:41;101567.22;;;1.78;83.04
71504;BME280;59323;50.874;7.028;2023-03-16T02:05:12;101560.25;;;1.77;83.39
71504;BME280;59323;50.874;7.028;2023-03-16T02:07:56;101557.31;;;1.78;83.59
71504;BME280;59323;50.874;7.028;2023-03-16T02:10:25;101550.63;;;1.76;83.10
71504;BME280;59323;50.874;7.028;2023-03-16T02:12:53;101547.94;;;1.76;82.82
71504;BME280;59323;50.874;7.028;2023-03-16T02:15:18;101541.50;;;1.77;82.67
71504;BME280;59323;50.874;7.028;2023-03-16T02:17:45;101551.38;;;1.81;82.50
71504;BME280;59323;50.874;7.028;2023-03-16T02:22:59;101543.34;;;1.81;82.27
71504;BME280;59323;50.874;7.028;2023-03-16T02:28:24;101547.66;;;1.77;82.72
71504;BME280;59323;50.874;7.028;2023-03-16T02:30:52;101555.19;;;1.75;82.73
71504;BME280;59323;50.874;7.028;2023-03-16T02:36:02;101539.97;;;1.71;83.17
71504;BME280;59323;50.874;7.028;2023-03-16T02:38:28;101534.38;;;1.67;83.15
71504;BME280;59323;50.874;7.028;2023-03-16T02:40:57;101523.38;;;1.69;83.17
71504;BME280;59323;50.874;7.028;2023-03-16T02:43:27;101524.47;;;1.68;82.95
71504;BME280;59323;50.874;7.028;2023-03-16T02:45:59;101516.22;;;1.64;83.20
71504;BME280;59323;50.874;7.028;2023-03-16T02:48:36;101516.72;;;1.66;83.22
71504;BME280;59323;50.874;7.028;2023-03-16T02:51:07;101521.00;;;1.67;82.91
71504;BME280;59323;50.874;7.028;2023-03-16T02:53:32;101516.72;;;1.66;82.78
71504;BME280;59323;50.874;7.028;2023-03-16T02:55:57;101520.13;;;1.72;82.84
71504;BME280;59323;50.874;7.028;2023-03-16T02:58:23;101508.41;;;1.68;82.76
71504;BME280;59323;50.874;7.028;2023-03-16T03:00:48;101511.59;;;1.70;82.70
71504;BME280;59323;50.874;7.028;2023-03-16T03:03:14;101505.94;;;1.71;83.23
71504;BME280;59323;50.874;7.028;2023-03-16T03:05:39;101499.28;;;1.69;82.65
71504;BME280;59323;50.874;7.028;2023-03-16T03:08:05;101502.47;;;1.71;82.90
71504;BME280;59323;50.874;7.028;2023-03-16T03:10:30;101499.78;;;1.71;82.73
71504;BME280;59323;50.874;7.028;2023-03-16T03:12:56;101501.16;;;1.68;82.55
71504;BME280;59323;50.874;7.028;2023-03-16T03:15:22;101501.66;;;1.70;82.60
71504;BME280;59323;50.874;7.028;2023-03-16T03:17:48;101499.00;;;1.70;82.93
71504;BME280;59323;50.874;7.028;2023-03-16T03:20:13;101500.00;;;1.74;82.58
71504;BME280;59323;50.874;7.028;2023-03-16T03:22:42;101501.59;;;1.75;82.64
71504;BME280;59323;50.874;7.028;2023-03-16T03:25:09;101502.34;;;1.81;81.76
71504;BME280;59323;50.874;7.028;2023-03-16T03:27:34;101503.66;;;1.83;81.09
71504;BME280;59323;50.874;7.028;2023-03-16T03:30:00;101507.94;;;1.84;81.04
71504;BME280;59323;50.874;7.028;2023-03-16T03:32:25;101507.72;;;1.81;81.46
71504;BME280;59323;50.874;7.028;2023-03-16T03:34:50;101500.47;;;1.81;81.58
71504;BME280;59323;50.874;7.028;2023-03-16T03:37:17;101490.03;;;1.80;81.58
71504;BME280;59323;50.874;7.028;2023-03-16T03:39:43;101488.22;;;1.75;81.46
71504;BME280;59323;50.874;7.028;2023-03-16T03:42:10;101488.94;;;1.81;81.13
71504;BME280;59323;50.874;7.028;2023-03-16T03:44:35;101490.31;;;1.78;81.25
71504;BME280;59323;50.874;7.028;2023-03-16T03:47:01;101497.28;;;1.79;81.18
71504;BME280;59323;50.874;7.028;2023-03-16T03:49:27;101493.00;;;1.78;81.85
71504;BME280;59323;50.874;7.028;2023-03-16T03:51:53;101496.25;;;1.75;81.48
71504;BME280;59323;50.874;7.028;2023-03-16T03:54:18;101492.19;;;1.78;81.42
71504;BME280;59323;50.874;7.028;2023-03-16T03:56:44;101486.56;;;1.79;81.56
71504;BME280;59323;50.874;7.028;2023-03-16T03:59:09;101482.78;;;1.80;81.26
71504;BME280;59323;50.874;7.028;2023-03-16T04:01:35;101481.25;;;1.74;81.42
71504;BME280;59323;50.874;7.028;2023-03-16T04:04:00;101481.53;;;1.73;81.76
71504;BME280;59323;50.874;7.028;2023-03-16T04:06:25;101488.44;;;1.79;81.34
71504;BME280;59323;50.874;7.028;2023-03-16T04:08:51;101496.47;;;1.79;80.99
71504;BME280;59323;50.874;7.028;2023-03-16T04:11:18;101484.44;;;1.76;81.23
71504;BME280;59323;50.874;7.028;2023-03-16T04:13:44;101487.06;;;1.81;80.71
71504;BME280;59323;50.874;7.028;2023-03-16T04:16:10;101490.03;;;1.80;81.09
71504;BME280;59323;50.874;7.028;2023-03-16T04:18:35;101492.94;;;1.83;80.89
71504;BME280;59323;50.874;7.028;2023-03-16T04:21:04;101483.03;;;1.84;81.24
71504;BME280;59323;50.874;7.028;2023-03-16T04:23:31;101478.16;;;1.86;80.58
71504;BME280;59323;50.874;7.028;2023-03-16T04:26:00;101484.09;;;1.83;80.85
71504;BME280;59323;50.874;7.028;2023-03-16T04:28:25;101470.63;;;1.88;81.24
71504;BME280;59323;50.874;7.028;2023-03-16T04:30:54;101473.59;;;1.86;80.63
71504;BME280;59323;50.874;7.028;2023-03-16T04:33:22;101461.50;;;1.89;81.24
71504;BME280;59323;50.874;7.028;2023-03-16T04:35:48;101468.97;;;1.92;80.71
71504;BME280;59323;50.874;7.028;2023-03-16T04:38:13;101465.78;;;1.90;80.21
71504;BME280;59323;50.874;7.028;2023-03-16T04:40:38;101461.00;;;1.87;81.31
71504;BME280;59323;50.874;7.028;2023-03-16T04:43:04;101457.75;;;1.90;80.74
71504;BME280;59323;50.874;7.028;2023-03-16T04:45:29;101454.78;;;1.91;80.99
71504;BME280;59323;50.874;7.028;2023-03-16T04:47:54;101451.31;;;1.91;80.87
71504;BME280;59323;50.874;7.028;2023-03-16T04:50:20;101447.00;;;1.95;81.06
71504;BME280;59323;50.874;7.028;2023-03-16T04:52:47;101452.78;;;2.02;80.36
71504;BME280;59323;50.874;7.028;2023-03-16T04:55:12;101447.22;;;1.99;80.46
71504;BME280;59323;50.874;7.028;2023-03-16T04:57:37;101444.81;;;1.97;80.82
71504;BME280;59323;50.874;7.028;2023-03-16T05:00:03;101443.44;;;2.00;81.03
71504;BME280;59323;50.874;7.028;2023-03-16T05:02:37;101431.41;;;1.97;81.60
71504;BME280;59323;50.874;7.028;2023-03-16T05:05:03;101430.91;;;1.95;81.83
71504;BME280;59323;50.874;7.028;2023-03-16T05:07:29;101427.38;;;2.00;81.64
71504;BME280;59323;50.874;7.028;2023-03-16T05:09:55;101431.13;;;1.99;81.58
71504;BME280;59323;50.874;7.028;2023-03-16T05:12:21;101430.91;;;1.95;82.12
71504;BME280;59323;50.874;7.028;2023-03-16T05:14:46;101431.41;;;1.97;81.98
71504;BME280;59323;50.874;7.028;2023-03-16T05:17:11;101431.41;;;1.97;81.52
71504;BME280;59323;50.874;7.028;2023-03-16T05:19:39;101436.72;;;2.02;81.54
71504;BME280;59323;50.874;7.028;2023-03-16T05:22:04;101425.69;;;2.04;81.99
71504;BME280;59323;50.874;7.028;2023-03-16T05:24:31;101427.28;;;2.05;81.84
71504;BME280;59323;50.874;7.028;2023-03-16T05:26:56;101427.81;;;2.07;82.27
71504;BME280;59323;50.874;7.028;2023-03-16T05:29:22;101426.72;;;2.08;82.00
71504;BME280;59323;50.874;7.028;2023-03-16T05:31:47;101433.88;;;2.12;81.71
71504;BME280;59323;50.874;7.028;2023-03-16T05:34:13;101438.66;;;2.15;81.56
71504;BME280;59323;50.874;7.028;2023-03-16T05:36:38;101435.19;;;2.15;81.71
71504;BME280;59323;50.874;7.028;2023-03-16T05:39:04;101434.91;;;2.16;81.77
71504;BME280;59323;50.874;7.028;2023-03-16T05:41:29;101433.81;;;2.17;81.66
71504;BME280;59323;50.874;7.028;2023-03-16T05:43:55;101438.31;;;2.22;81.24
71504;BME280;59323;50.874;7.028;2023-03-16T05:46:20;101438.31;;;2.22;81.45
71504;BME280;59323;50.874;7.028;2023-03-16T05:48:45;101434.25;;;2.25;81.67
71504;BME280;59323;50.874;7.028;2023-03-16T05:51:10;101438.72;;;2.29;81.33
71504;BME280;59323;50.874;7.028;2023-03-16T05:53:38;101440.91;;;2.27;81.20
71504;BME280;59323;50.874;7.028;2023-03-16T05:56:03;101436.63;;;2.26;81.31
71504;BME280;59323;50.874;7.028;2023-03-16T05:58:30;101434.16;;;2.30;81.20
71504;BME280;59323;50.874;7.028;2023-03-16T06:00:58;101432.78;;;2.32;80.85
71504;BME280;59323;50.874;7.028;2023-03-16T06:03:26;101435.38;;;2.37;80.55
71504;BME280;59323;50.874;7.028;2023-03-16T06:05:51;101439.38;;;2.40;80.42
71504;BME280;59323;50.874;7.028;2023-03-16T06:08:16;101443.34;;;2.42;80.75
71504;BME280;59323;50.874;7.028;2023-03-16T06:10:42;101445.97;;;2.47;80.01
71504;BME280;59323;50.874;7.028;2023-03-16T06:13:07;101444.94;;;2.43;80.11
71504;BME280;59323;50.874;7.028;2023-03-16T06:15:32;101433.41;;;2.43;80.30
71504;BME280;59323;50.874;7.028;2023-03-16T06:17:58;101443.84;;;2.44;80.12
71504;BME280;59323;50.874;7.028;2023-03-16T06:20:23;101449.66;;;2.51;79.94
71504;BME280;59323;50.874;7.028;2023-03-16T06:22:49;101452.53;;;2.55;79.47
71504;BME280;59323;50.874;7.028;2023-03-16T06:25:15;101454.94;;;2.57;79.60
71504;BME280;59323;50.874;7.028;2023-03-16T06:27:41;101453.84;;;2.58;79.64
71504;BME280;59323;50.874;7.028;2023-03-16T06:30:08;101449.28;;;2.58;79.88
71504;BME280;59323;50.874;7.028;2023-03-16T06:32:34;101445.75;;;2.63;80.15
71504;BME280;59323;50.874;7.028;2023-03-16T06:35:00;101453.22;;;2.66;79.43
71504;BME280;59323;50.874;7.028;2023-03-16T06:37:28;101451.81;;;2.68;79.89
71504;BME280;59323;50.874;7.028;2023-03-16T06:39:53;101447.66;;;2.76;79.92
71504;BME280;59323;50.874;7.028;2023-03-16T06:42:19;101448.59;;;2.85;78.69
71504;BME280;59323;50.874;7.028;2023-03-16T06:44:46;101442.13;;;2.86;79.09
71504;BME280;59323;50.874;7.028;2023-03-16T06:47:11;101459.22;;;2.90;79.39
71504;BME280;59323;50.874;7.028;2023-03-16T06:49:37;101449.50;;;2.94;78.54
71504;BME280;59323;50.874;7.028;2023-03-16T06:52:03;101450.28;;;2.95;78.78
71504;BME280;59323;50.874;7.028;2023-03-16T06:54:28;101453.19;;;2.98;78.59
71504;BME280;59323;50.874;7.028;2023-03-16T06:56:56;101460.06;;;3.04;78.82
71504;BME280;59323;50.874;7.028;2023-03-16T06:59:22;101459.97;;;3.09;78.81
71504;BME280;59323;50.874;7.028;2023-03-16T07:01:49;101463.66;;;3.13;78.33
71504;BME280;59323;50.874;7.028;2023-03-16T07:04:15;101461.47;;;3.15;78.42
71504;BME280;59323;50.874;7.028;2023-03-16T07:06:40;101448.75;;;3.21;77.99
71504;BME280;59323;50.874;7.028;2023-03-16T07:09:06;101455.06;;;3.30;78.02
71504;BME280;59323;50.874;7.028;2023-03-16T07:11:32;101456.94;;;3.30;77.55
71504;BME280;59323;50.874;7.028;2023-03-16T07:13:57;101465.41;;;3.37;77.15
71504;BME280;59323;50.874;7.028;2023-03-16T07:16:23;101465.31;;;3.42;77.47
71504;BME280;59323;50.874;7.028;2023-03-16T07:18:49;101461.72;;;3.46;76.75
71504;BME280;59323;50.874;7.028;2023-03-16T07:21:14;101470.09;;;3.59;76.60
71504;BME280;59323;50.874;7.028;2023-03-16T07:23:39;101463.81;;;3.63;77.19
71504;BME280;59323;50.874;7.028;2023-03-16T07:26:05;101459.91;;;3.69;77.14
71504;BME280;59323;50.874;7.028;2023-03-16T07:28:33;101468.56;;;3.80;76.39
71504;BME280;59323;50.874;7.028;2023-03-16T07:30:58;101463.28;;;3.89;75.45
71504;BME280;59323;50.874;7.028;2023-03-16T07:33:23;101466.50;;;3.91;75.86
71504;BME280;59323;50.874;7.028;2023-03-16T07:35:49;101471.06;;;4.04;74.82
71504;BME280;59323;50.874;7.028;2023-03-16T07:38:16;101464.75;;;4.08;75.65
71504;BME280;59323;50.874;7.028;2023-03-16T07:40:41;101461.47;;;4.11;76.13
71504;BME280;59323;50.874;7.028;2023-03-16T07:43:06;101463.13;;;4.21;75.03
71504;BME280;59323;50.874;7.028;2023-03-16T07:45:32;101465.09;;;4.29;74.52
71504;BME280;59323;50.874;7.028;2023-03-16T07:47:57;101455.81;;;4.35;74.89
71504;BME280;59323;50.874;7.028;2023-03-16T07:50:22;101464.75;;;4.44;74.36
71504;BME280;59323;50.874;7.028;2023-03-16T07:52:51;101463.72;;;4.54;73.36
71504;BME280;59323;50.874;7.028;2023-03-16T07:55:16;101468.69;;;4.61;73.14
71504;BME280;59323;50.874;7.028;2023-03-16T07:57:41;101461.59;;;4.65;73.15
71504;BME280;59323;50.874;7.028;2023-03-16T08:00:12;101454.38;;;4.74;73.31
71504;BME280;59323;50.874;7.028;2023-03-16T08:02:38;101446.19;;;4.79;73.34
71504;BME280;59323;50.874;7.028;2023-03-16T08:05:03;101446.34;;;4.83;72.39
71504;BME280;59323;50.874;7.028;2023-03-16T08:07:29;101450.81;;;4.87;73.32
71504;BME280;59323;50.874;7.028;2023-03-16T08:09:56;101440.41;;;4.94;73.23
71504;BME280;59323;50.874;7.028;2023-03-16T08:12:21;101438.38;;;5.00;72.59
71504;BME280;59323;50.874;7.028;2023-03-16T08:14:47;101445.53;;;5.04;73.17
71504;BME280;59323;50.874;7.028;2023-03-16T08:17:16;101446.84;;;5.16;72.30
71504;BME280;59323;50.874;7.028;2023-03-16T08:19:41;101444.94;;;5.16;72.86
71504;BME280;59323;50.874;7.028;2023-03-16T08:22:10;101453.72;;;5.22;71.37
71504;BME280;59323;50.874;7.028;2023-03-16T08:24:36;101453.41;;;5.23;71.58
71504;BME280;59323;50.874;7.028;2023-03-16T08:27:02;101464.84;;;5.29;71.39
71504;BME280;59323;50.874;7.028;2023-03-16T08:29:27;101453.94;;;5.34;70.92
71504;BME280;59323;50.874;7.028;2023-03-16T08:31:56;101458.22;;;5.35;71.09
71504;BME280;59323;50.874;7.028;2023-03-16T08:34:25;101460.28;;;5.38;71.75
71504;BME280;59323;50.874;7.028;2023-03-16T08:36:51;101461.88;;;5.39;70.99
71504;BME280;59323;50.874;7.028;2023-03-16T08:39:18;101455.72;;;5.47;70.35
71504;BME280;59323;50.874;7.028;2023-03-16T08:41:44;101455.41;;;5.49;69.61
71504;BME280;59323;50.874;7.028;2023-03-16T08:44:11;101445.75;;;5.56;70.83
71504;BME280;59323;50.874;7.028;2023-03-16T08:46:37;101438.97;;;5.67;70.23
71504;BME280;59323;50.874;7.028;2023-03-16T08:49:03;101442.78;;;5.75;70.02
71504;BME280;59323;50.874;7.028;2023-03-16T08:51:29;101429.16;;;5.80;69.88
71504;BME280;59323;50.874;7.028;2023-03-16T08:53:57;101432.81;;;5.84;70.43
71504;BME280;59323;50.874;7.028;2023-03-16T08:56:23;101429.94;;;5.81;69.86
71504;BME280;59323;50.874;7.028;2023-03-16T08:58:49;101444.09;;;5.86;70.33
71504;BME280;59323;50.874;7.028;2023-03-16T09:01:16;101437.00;;;5.90;69.49
71504;BME280;59323;50.874;7.028;2023-03-16T09:03:44;101436.69;;;5.92;69.70
71504;BME280;59323;50.874;7.028;2023-03-16T09:06:12;101441.28;;;5.91;69.25
71504;BME280;59323;50.874;7.028;2023-03-16T09:08:39;101446.84;;;5.95;70.04
71504;BME280;59323;50.874;7.028;2023-03-16T09:11:14;101438.75;;;5.95;69.76
71504;BME280;59323;50.874;7.028;2023-03-16T09:13:39;101432.41;;;5.99;69.86
71504;BME280;59323;50.874;7.028;2023-03-16T09:16:06;101417.34;;;5.98;69.72
71504;BME280;59323;50.874;7.028;2023-03-16T09:18:32;101418.13;;;5.99;68.87
71504;BME280;59323;50.874;7.028;2023-03-16T09:21:06;101413.69;;;6.03;68.93
71504;BME280;59323;50.874;7.028;2023-03-16T09:23:32;101420.34;;;6.06;69.98
71504;BME280;59323;50.874;7.028;2023-03-16T09:26:03;101416.72;;;6.10;68.55
71504;BME280;59323;50.874;7.028;2023-03-16T09:28:30;101418.47;;;6.15;69.38
71504;BME280;59323;50.874;7.028;2023-03-16T09:30:57;101424.16;;;6.22;69.21
71504;BME280;59323;50.874;7.028;2023-03-16T09:33:23;101428.78;;;6.30;70.20
71504;BME280;59323;50.874;7.028;2023-03-16T09:35:50;101420.34;;;6.40;69.76
71504;BME280;59323;50.874;7.028;2023-03-16T09:38:16;101418.28;;;6.46;69.54
71504;BME280;59323;50.874;7.028;2023-03-16T09:40:45;101410.84;;;6.51;67.52
71504;BME280;59323;50.874;7.028;2023-03-16T09:48:14;101404.78;;;6.63;68.05
71504;BME280;59323;50.874;7.028;2023-03-16T09:50:41;101411.13;;;6.67;67.87
71504;BME280;59323;50.874;7.028;2023-03-16T09:53:21;101400.78;;;6.69;67.42
71504;BME280;59323;50.874;7.028;2023-03-16T09:56:02;101393.31;;;6.75;68.67
71504;BME280;59323;50.874;7.028;2023-03-16T09:58:28;101398.06;;;6.78;67.68
71504;BME280;59323;50.874;7.028;2023-03-16T10:03:50;101393.44;;;6.87;67.66
71504;BME280;59323;50.874;7.028;2023-03-16T10:06:21;101391.66;;;6.91;68.22
71504;BME280;59323;50.874;7.028;2023-03-16T10:11:37;101392.47;;;6.91;67.16
71504;BME280;59323;50.874;7.028;2023-03-16T10:16:53;101394.53;;;6.94;66.17
71504;BME280;59323;50.874;7.028;2023-03-16T10:19:35;101385.00;;;6.88;66.37
71504;BME280;59323;50.874;7.028;2023-03-16T10:22:14;101387.84;;;6.92;66.50
71504;BME280;59323;50.874;7.028;2023-03-16T10:24:43;101385.13;;;7.00;66.02
71504;BME280;59323;50.874;7.028;2023-03-16T10:27:19;101390.53;;;7.00;66.28
71504;BME280;59323;50.874;7.028;2023-03-16T10:29:48;101390.84;;;6.99;65.48
71504;BME280;59323;50.874;7.028;2023-03-16T10:32:16;101384.94;;;7.06;65.65
71504;BME280;59323;50.874;7.028;2023-03-16T10:34:47;101388.75;;;7.05;65.72
71504;BME280;59323;50.874;7.028;2023-03-16T10:37:17;101382.84;;;7.11;66.04
71504;BME280;59323;50.874;7.028;2023-03-16T10:39:43;101364.06;;;7.15;65.47
71504;BME280;59323;50.874;7.028;2023-03-16T10:42:19;101372.31;;;7.27;65.54
71504;BME280;59323;50.874;7.028;2023-03-16T10:44:45;101363.69;;;7.34;65.13
71504;BME280;59323;50.874;7.028;2023-03-16T10:47:17;101369.19;;;7.46;64.99
71504;BME280;59323;50.874;7.028;2023-03-16T10:49:44;101376.63;;;7.49;64.67
71504;BME280;59323;50.874;7.028;2023-03-16T10:52:39;101375.00;;;7.56;64.82
71504;BME280;59323;50.874;7.028;2023-03-16T10:55:19;101371.25;;;7.70;63.09
71504;BME280;59323;50.874;7.028;2023-03-16T10:57:50;101361.00;;;7.84;63.23
71504;BME280;59323;50.874;7.028;2023-03-16T11:00:25;101367.38;;;8.00;64.15
71504;BME280;59323;50.874;7.028;2023-03-16T11:02:54;101354.56;;;8.09;64.24
71504;BME280;59323;50.874;7.028;2023-03-16T11:08:13;101346.50;;;8.21;62.42
71504;BME280;59323;50.874;7.028;2023-03-16T11:10:45;101337.66;;;8.33;60.85
71504;BME280;59323;50.874;7.028;2023-03-16T11:13:17;101339.06;;;8.51;61.23
71504;BME280;59323;50.874;7.028;2023-03-16T11:18:31;101326.47;;;8.80;60.26
71504;BME280;59323;50.874;7.028;2023-03-16T11:21:05;101326.16;;;9.06;59.66
71504;BME280;59323;50.874;7.028;2023-03-16T11:23:33;101310.13;;;9.13;58.99
71504;BME280;59323;50.874;7.028;2023-03-16T11:26:06;101325.47;;;9.33;60.81
71504;BME280;59323;50.874;7.028;2023-03-16T11:28:40;101318.00;;;9.42;58.19
71504;BME280;59323;50.874;7.028;2023-03-16T11:31:44;101307.25;;;9.46;57.87
71504;BME280;59323;50.874;7.028;2023-03-16T11:34:15;101301.25;;;9.52;58.75
71504;BME280;59323;50.874;7.028;2023-03-16T11:36:54;101300.22;;;9.57;57.42
71504;BME280;59323;50.874;7.028;2023-03-16T11:42:03;101285.13;;;9.72;56.88
71504;BME280;59323;50.874;7.028;2023-03-16T11:44:43;101275.50;;;9.74;57.41
71504;BME280;59323;50.874;7.028;2023-03-16T11:50:32;101267.06;;;9.76;55.60
71504;BME280;59323;50.874;7.028;2023-03-16T11:53:12;101281.97;;;9.82;55.74
71504;BME280;59323;50.874;7.028;2023-03-16T11:56:25;101273.47;;;9.83;55.70
71504;BME280;59323;50.874;7.028;2023-03-16T12:02:25;101270.53;;;10.04;57.21
71504;BME280;59323;50.874;7.028;2023-03-16T12:16:10;101253.47;;;10.63;53.89
71504;BME280;59323;50.874;7.028;2023-03-16T12:18:46;101250.41;;;10.65;53.87
71504;BME280;59323;50.874;7.028;2023-03-16T12:21:19;101240.84;;;10.71;54.56
71504;BME280;59323;50.874;7.028;2023-03-16T12:24:01;101230.47;;;10.76;54.67
71504;BME280;59323;50.874;7.028;2023-03-16T12:26:31;101224.13;;;10.88;54.67
71504;BME280;59323;50.874;7.028;2023-03-16T12:29:06;101220.09;;;10.98;54.47
71504;BME280;59323;50.874;7.028;2023-03-16T12:31:46;101210.50;;;11.04;53.54
71504;BME280;59323;50.874;7.028;2023-03-16T12:37:17;101200.53;;;10.92;52.94
71504;BME280;59323;50.874;7.028;2023-03-16T12:48:43;101192.00;;;10.74;54.42
71504;BME280;59323;50.874;7.028;2023-03-16T12:51:02;101174.38;;;10.68;53.47
71504;BME280;59323;50.874;7.028;2023-03-16T12:56:14;101161.94;;;10.67;53.83
71504;BME280;59323;50.874;7.028;2023-03-16T12:58:43;101156.28;;;10.76;53.59
71504;BME280;59323;50.874;7.028;2023-03-16T13:01:10;101151.78;;;10.84;53.97
71504;BME280;59323;50.874;7.028;2023-03-16T13:03:37;101149.78;;;10.80;53.52
71504;BME280;59323;50.874;7.028;2023-03-16T13:06:03;101152.88;;;10.79;53.16
71504;BME280;59323;50.874;7.028;2023-03-16T13:08:40;101145.00;;;10.74;54.12
71504;BME280;59323;50.874;7.028;2023-03-16T13:11:09;101136.19;;;10.80;53.98
71504;BME280;59323;50.874;7.028;2023-03-16T13:13:51;101124.53;;;10.80;53.94
71504;BME280;59323;50.874;7.028;2023-03-16T13:16:25;101120.91;;;10.92;53.12
71504;BME280;59323;50.874;7.028;2023-03-16T13:18:51;101119.41;;;10.94;53.89
71504;BME280;59323;50.874;7.028;2023-03-16T13:21:40;101120.31;;;11.02;53.60
71504;BME280;59323;50.874;7.028;2023-03-16T13:26:46;101112.69;;;11.07;53.34
71504;BME280;59323;50.874;7.028;2023-03-16T13:29:20;101105.47;;;11.15;53.50
71504;BME280;59323;50.874;7.028;2023-03-16T13:31:47;101098.28;;;11.26;53.15
71504;BME280;59323;50.874;7.028;2023-03-16T13:34:26;101103.44;;;11.31;52.24
71504;BME280;59323;50.874;7.028;2023-03-16T13:36:55;101100.13;;;11.41;50.21
71504;BME280;59323;50.874;7.028;2023-03-16T13:39:26;101097.78;;;11.40;50.47
71504;BME280;59323;50.874;7.028;2023-03-16T13:44:22;101091.25;;;11.44;50.28
71504;BME280;59323;50.874;7.028;2023-03-16T13:46:48;101089.31;;;11.45;50.17
71504;BME280;59323;50.874;7.028;2023-03-16T13:49:15;101076.78;;;11.40;49.15
71504;BME280;59323;50.874;7.028;2023-03-16T13:51:40;101076.00;;;11.40;50.55
71504;BME280;59323;50.874;7.028;2023-03-16T13:54:23;101061.75;;;11.47;52.41
71504;BME280;59323;50.874;7.028;2023-03-16T13:56:51;101067.91;;;11.43;50.75
71504;BME280;59323;50.874;7.028;2023-03-16T13:59:17;101069.72;;;11.36;50.34
71504;BME280;59323;50.874;7.028;2023-03-16T14:01:45;101068.06;;;11.31;51.17
71504;BME280;59323;50.874;7.028;2023-03-16T14:04:13;101053.63;;;11.27;51.02
71504;BME280;59323;50.874;7.028;2023-03-16T14:07:01;101057.25;;;11.35;51.58
71504;BME280;59323;50.874;7.028;2023-03-16T14:09:30;101053.88;;;11.41;51.71
71504;BME280;59323;50.874;7.028;2023-03-16T14:11:57;101045.72;;;11.41;51.65
71504;BME280;59323;50.874;7.028;2023-03-16T14:14:30;101042.31;;;11.48;52.02
71504;BME280;59323;50.874;7.028;2023-03-16T14:17:07;101036.09;;;11.48;51.22